Isle Of Palms, SC (29451)

11:05 PM EST on December 18, 2014 (GMT -0500)
Snee Farm | Change Station
CLOSE
Current Station
Personal Weather Station
Location: Mt. Pleasant, SC
Elevation: 22 ft
Nearby Weather Stations

Elev 22 ft 32.84 °N, 79.84 °W | Updated 14 seconds ago

Clear
Clear
46.0 °F
Feels Like 46 °F
N
0.0
Wind Variable Wind from SE

Today
High -- | Low -- °F
--% Chance of Precip.
Yesterday
High -- | Low -- °F
Precip. -- in
7:15 AM 5:15 PM
Waning Crescent, 10% visible
Pressure 30.12 in
Visibility 8.0 miles
Clouds Few 12000 ft
Windchill 46 °F
Dew Point 44 °F
Humidity 91%
Rainfall 0.00 in
Snow Depth Not available.
UV 0 out of 12
Pollen 2.60 out of 12
Air Quality Not available.
Flu Activity Not available.
METAR KLRO 190355Z AUTO 00000KT 8SM FEW120 06/06 A3012 RMK AO2

More Conditions Fewer Conditions

Pressure 30.12 in
Visibility 8.0 miles
Clouds Few 12000 ft
Windchill 46 °F
Dew Point 44 °F
Humidity 91%
Rainfall 0.00 in
Snow Depth Not available.
UV 0 out of 12
Pollen 2.60 out of 12
Air Quality Not available.
Flu Activity Not available.
METAR KLRO 190355Z AUTO 00000KT 8SM FEW120 06/06 A3012 RMK AO2

More Conditions Fewer Conditions

10-Day Weather Forecast

Almanac

Astronomy

Dec. 18, 2014 Rise Set
Actual Time
Civil Twilight
Nautical Twilight
Astronomical Twilight
Moon
Length of Visible Light
Length of Day
Tomorrow will be .
, % of the Moon is Illuminated

Today's Extremes

State Highs State Lows

Community

WunderPhotos

Upload Photos

1,778,989 photos uploaded!

WunderBlogs® & News

Nearby

Air Quality

  Air Quality AQ Index Pollutant
Not available.

Snow Depth

Station Depth Elevation

Earthquake Activity

City Distance Mag. Time & Date
Minimum magnitude displayed is 2.5.

Coastal Water Temperatures

Place Temperature

Nearby Weather Stations